Time;durP1;ratioP1;P1;durP2;ratioP2;P2;SDS_P1;SDS_P2;PMS_P1;PMS_P2;Temp;Humidity;BMP_temperature;BMP_pressure;BME280_temperature;BME280_humidity;BME280_pressure;Samples;Min_cycle;Max_cycle;Signal;HPM_P1;HPM_P2
2023/09/07 00:02:58;;;;;;;6.88;6.15;;;13.40;99.90;;;;;;6247252;23;20020;-92
2023/09/07 00:06:34;;;;;;;;;;;;;;;;;;;;;
2023/09/07 00:10:35;;;;;;;;;;;;;;;;;;;;;
2023/09/07 00:14:04;;;;;;;;;;;;;;;;;;;;;
2023/09/07 00:20:47;;;;;;;6.47;5.75;;;13.50;99.90;;;;;;6121385;23;20096;-92
2023/09/07 00:23:35;;;;;;;10.80;6.20;;;13.50;99.90;;;;;;6133438;23;20029;-92
2023/09/07 00:26:22;;;;;;;8.40;5.47;;;13.40;99.90;;;;;;6155049;23;20029;-92
2023/09/07 00:29:18;;;;;;;8.43;5.55;;;13.40;99.90;;;;;;6154723;23;20172;-93
2023/09/07 00:32:09;;;;;;;7.97;5.53;;;13.30;99.90;;;;;;6183008;22;20028;-89
2023/09/07 00:34:56;;;;;;;9.73;5.85;;;13.20;99.90;;;;;;6245820;23;20024;-90
2023/09/07 00:37:49;;;;;;;6.75;5.82;;;13.20;99.90;;;;;;6244687;23;20372;-90
2023/09/07 00:40:51;;;;;;;7.28;5.75;;;13.20;99.90;;;;;;6247572;23;20098;-92
2023/09/07 00:43:49;;;;;;;7.50;5.85;;;13.20;99.90;;;;;;6247714;23;20074;-91
2023/09/07 00:46:36;;;;;;;8.95;6.15;;;13.20;99.90;;;;;;6245817;23;20024;-91
2023/09/07 00:49:28;;;;;;;6.78;6.05;;;13.20;99.90;;;;;;6247878;23;20309;-91
2023/09/07 00:53:06;;;;;;;;;;;;;;;;;;;;;
2023/09/07 00:56:23;;;;;;;8.50;6.38;;;13.30;99.90;;;;;;6245831;23;20039;-91
2023/09/07 00:59:18;;;;;;;8.15;6.45;;;13.30;99.90;;;;;;6247686;23;20032;-91
2023/09/07 01:02:07;;;;;;;8.57;6.45;;;13.30;99.90;;;;;;6249297;23;20097;-92
2023/09/07 01:04:58;;;;;;;9.07;6.55;;;13.30;99.90;;;;;;6248184;23;20024;-90
2023/09/07 01:07:49;;;;;;;9.60;6.15;;;13.20;99.90;;;;;;6249366;23;20114;-91
2023/09/07 01:10:37;;;;;;;8.52;6.50;;;13.10;99.90;;;;;;6248921;23;20159;-91
2023/09/07 01:13:27;;;;;;;8.35;5.90;;;13.00;99.90;;;;;;6248384;23;20040;-91
2023/09/07 01:16:16;;;;;;;7.63;6.18;;;13.00;99.90;;;;;;6248885;23;20390;-93
2023/09/07 01:19:06;;;;;;;10.50;5.88;;;12.90;99.90;;;;;;6249437;23;20058;-93
2023/09/07 01:22:14;;;;;;;7.35;6.28;;;13.00;99.90;;;;;;6250159;22;20043;-92
2023/09/07 01:25:15;;;;;;;8.02;5.70;;;13.00;99.90;;;;;;6247786;23;20016;-91
2023/09/07 01:28:03;;;;;;;11.25;6.13;;;13.00;99.90;;;;;;6246779;23;20020;-91
2023/09/07 01:30:54;;;;;;;8.90;5.18;;;12.90;99.90;;;;;;6248591;23;20024;-91
2023/09/07 01:33:45;;;;;;;5.90;4.55;;;12.80;99.90;;;;;;6247893;23;20031;-93
2023/09/07 01:36:35;;;;;;;7.78;5.68;;;12.80;99.90;;;;;;6247788;23;20031;-89
2023/09/07 01:39:30;;;;;;;7.95;6.28;;;12.70;99.90;;;;;;6247326;23;20056;-93
2023/09/07 01:42:20;;;;;;;6.90;6.13;;;12.70;99.90;;;;;;6247899;23;20326;-90
2023/09/07 01:45:12;;;;;;;9.93;6.30;;;12.70;99.90;;;;;;6249135;23;20034;-90
2023/09/07 01:48:00;;;;;;;9.13;5.93;;;12.80;99.90;;;;;;6249875;23;20113;-91
2023/09/07 01:50:53;;;;;;;10.65;6.55;;;12.70;99.90;;;;;;6248936;23;20478;-90
2023/09/07 01:53:41;;;;;;;8.55;6.13;;;12.70;99.90;;;;;;6247289;23;20092;-92
2023/09/07 01:56:28;;;;;;;12.40;6.43;;;12.70;99.90;;;;;;6248824;23;20028;-91
2023/09/07 01:59:17;;;;;;;7.55;6.70;;;12.60;99.90;;;;;;6249450;23;20087;-93
2023/09/07 02:02:10;;;;;;;8.98;6.93;;;12.60;99.90;;;;;;6249698;23;20034;-92
2023/09/07 02:05:05;;;;;;;9.82;6.93;;;12.60;99.90;;;;;;6257604;22;20054;-91
2023/09/07 02:07:56;;;;;;;9.63;6.90;;;12.60;99.90;;;;;;6256391;23;20036;-90
2023/09/07 02:10:49;;;;;;;8.05;6.68;;;12.60;99.90;;;;;;6256974;23;20040;-90
2023/09/07 02:13:43;;;;;;;18.08;8.15;;;12.60;99.90;;;;;;6256200;23;20021;-91
2023/09/07 02:16:55;;;;;;;12.05;7.65;;;12.50;99.90;;;;;;6257252;23;20035;-91
2023/09/07 02:19:57;;;;;;;;;;;;;;;;;;;;;
2023/09/07 02:23:19;;;;;;;11.15;7.90;;;12.40;99.90;;;;;;6247875;23;20043;-92
2023/09/07 02:26:16;;;;;;;8.43;6.93;;;12.40;99.90;;;;;;6229142;23;20032;-92
2023/09/07 02:29:06;;;;;;;10.07;6.72;;;12.30;99.90;;;;;;6252747;22;20020;-91
2023/09/07 02:31:59;;;;;;;8.65;6.65;;;12.20;99.90;;;;;;6251497;23;20082;-92
2023/09/07 02:34:48;;;;;;;11.73;7.35;;;12.20;99.90;;;;;;6252042;23;20357;-90
2023/09/07 02:37:52;;;;;;;;;;;;;;;;;;;;;
2023/09/07 02:41:08;;;;;;;9.57;6.85;;;12.20;99.90;;;;;;6249143;23;20024;-91
2023/09/07 02:44:00;;;;;;;11.80;7.25;;;12.20;99.90;;;;;;6251496;23;20054;-90
2023/09/07 02:47:10;;;;;;;9.02;6.95;;;12.20;99.90;;;;;;6181870;22;20103;-90
2023/09/07 02:50:18;;;;;;;8.50;6.63;;;12.10;99.90;;;;;;6247812;23;20028;-92
2023/09/07 02:53:16;;;;;;;10.30;7.68;;;12.10;99.90;;;;;;6246942;23;20133;-93
2023/09/07 02:56:04;;;;;;;9.70;7.10;;;12.00;99.90;;;;;;6248827;23;20335;-91
2023/09/07 02:59:08;;;;;;;;;;;12.00;99.90;;;;;;6250261;23;20089;-90
2023/09/07 03:01:55;;;;;;;13.65;7.20;;;12.10;99.90;;;;;;6250438;22;19915;-91
2023/09/07 03:04:43;;;;;;;10.82;8.05;;;12.00;99.90;;;;;;6250156;23;20052;-90
2023/09/07 03:07:33;;;;;;;11.32;7.22;;;11.90;99.90;;;;;;6247633;23;20031;-91
2023/09/07 03:10:22;;;;;;;10.63;7.88;;;11.90;99.90;;;;;;6247068;23;20078;-90
2023/09/07 03:13:32;;;;;;;13.27;7.97;;;11.90;99.90;;;;;;6246774;23;20439;-92
2023/09/07 03:16:21;;;;;;;9.20;8.13;;;11.80;99.90;;;;;;6246444;23;20121;-91
2023/09/07 03:19:31;;;;;;;13.52;8.30;;;11.80;99.90;;;;;;6156260;23;20037;-91
2023/09/07 03:22:21;;;;;;;9.52;6.90;;;11.70;99.90;;;;;;6154760;23;20029;-91
2023/09/07 03:25:12;;;;;;;9.00;6.93;;;11.70;99.90;;;;;;6155065;23;20034;-91
2023/09/07 03:28:03;;;;;;;8.60;7.20;;;11.60;99.90;;;;;;6245983;23;20067;-92
2023/09/07 03:30:53;;;;;;;11.57;7.80;;;11.50;99.90;;;;;;6245575;23;20125;-91
2023/09/07 03:33:43;;;;;;;10.15;7.63;;;11.50;99.90;;;;;;6246369;23;20109;-91
2023/09/07 03:36:32;;;;;;;9.93;7.72;;;11.50;99.90;;;;;;6246107;23;20095;-92
2023/09/07 03:39:26;;;;;;;11.23;8.13;;;11.50;99.90;;;;;;6246672;23;20020;-92
2023/09/07 03:42:16;;;;;;;11.68;8.88;;;11.40;99.90;;;;;;6247917;23;20095;-90
2023/09/07 03:45:35;;;;;;;;;;;;;;;;;;;;;
2023/09/07 03:48:35;;;;;;;12.88;9.90;;;11.40;99.90;;;;;;6247379;23;20404;-92
2023/09/07 03:51:37;;;;;;;;;;;;;;;;;;;;;
2023/09/07 03:54:26;;;;;;;13.32;8.60;;;11.40;99.90;;;;;;6247299;23;20020;-91
2023/09/07 03:57:19;;;;;;;13.18;9.07;;;11.40;99.90;;;;;;6246346;23;20118;-91
2023/09/07 04:00:09;;;;;;;12.85;8.73;;;11.40;99.90;;;;;;6247207;23;20034;-92
2023/09/07 04:03:20;;;;;;;10.10;8.88;;;11.50;99.90;;;;;;6245323;23;20031;-92
2023/09/07 04:06:31;;;;;;;;;;;;;;;;;;;;;
2023/09/07 04:09:30;;;;;;;12.48;9.65;;;11.40;99.90;;;;;;6247577;23;20024;-92
2023/09/07 04:12:29;;;;;;;13.00;9.90;;;11.30;99.90;;;;;;6247847;23;20079;-92
2023/09/07 04:15:36;;;;;;;15.52;10.00;;;11.30;99.90;;;;;;6246997;23;20620;-92
2023/09/07 04:18:27;;;;;;;15.88;9.77;;;11.20;99.90;;;;;;6248492;23;20032;-91
2023/09/07 04:21:51;;;;;;;15.32;10.57;;;11.20;99.90;;;;;;6245148;23;20113;-91
2023/09/07 04:24:48;;;;;;;14.02;10.50;;;11.40;99.90;;;;;;6247324;23;20038;-91
2023/09/07 04:27:44;;;;;;;16.95;10.25;;;11.50;99.90;;;;;;6248085;23;20024;-93
2023/09/07 04:30:33;;;;;;;14.93;9.77;;;11.40;99.90;;;;;;6252264;23;20024;-92
2023/09/07 04:33:25;;;;;;;14.35;9.65;;;11.40;99.90;;;;;;6261404;23;20050;-93
2023/09/07 04:36:29;;;;;;;13.30;9.68;;;11.30;99.90;;;;;;6254738;23;20055;-91
2023/09/07 04:39:18;;;;;;;15.35;9.65;;;11.30;99.90;;;;;;6234770;23;20099;-90
2023/09/07 04:42:08;;;;;;;17.48;11.13;;;11.30;99.90;;;;;;6255266;23;20131;-92
2023/09/07 04:44:56;;;;;;;12.73;9.32;;;11.20;99.90;;;;;;6264234;23;20035;-92
2023/09/07 04:47:49;;;;;;;18.05;10.82;;;11.20;99.90;;;;;;6265067;23;20039;-91
2023/09/07 04:50:38;;;;;;;13.07;10.10;;;11.10;99.90;;;;;;6269355;22;20012;-84
2023/09/07 04:54:03;;;;;;;12.30;10.35;;;11.20;99.90;;;;;;6270465;22;20038;-84
2023/09/07 04:57:17;;;;;;;12.80;10.52;;;11.20;99.90;;;;;;6271769;22;20012;-84
2023/09/07 05:00:31;;;;;;;14.40;10.88;;;11.20;99.90;;;;;;6271411;22;20027;-91
2023/09/07 05:04:04;;;;;;;;;;;;;;;;;;;;;
2023/09/07 05:11:27;;;;;;;15.18;10.63;;;11.40;99.90;;;;;;6257490;23;20048;-91
2023/09/07 05:14:18;;;;;;;13.60;10.75;;;11.50;99.90;;;;;;6261324;23;20035;-91
2023/09/07 05:17:32;;;;;;;14.75;10.80;;;11.40;99.90;;;;;;6148237;23;20014;-90
2023/09/07 05:20:23;;;;;;;15.35;11.13;;;11.40;99.90;;;;;;6149098;23;20014;-90
2023/09/07 05:23:25;;;;;;;;;;;;;;;;;;;;;
2023/09/07 05:26:29;;;;;;;16.80;11.57;;;11.40;99.90;;;;;;6263410;23;20043;-88
2023/09/07 05:29:23;;;;;;;13.75;11.38;;;11.50;99.90;;;;;;6265612;23;20019;-89
2023/09/07 05:32:41;;;;;;;16.10;11.77;;;11.60;99.90;;;;;;6268750;23;20050;-88
2023/09/07 05:35:34;;;;;;;18.88;12.18;;;11.70;99.90;;;;;;6270267;23;20016;-90
2023/09/07 05:38:24;;;;;;;15.30;12.05;;;11.80;99.90;;;;;;6264727;23;20047;-87
2023/09/07 05:41:24;;;;;;;14.05;11.25;;;11.90;99.90;;;;;;6258196;23;20099;-92
2023/09/07 05:44:27;;;;;;;15.65;12.38;;;12.00;99.90;;;;;;6261769;23;20028;-91
2023/09/07 05:47:19;;;;;;;20.50;11.57;;;12.10;99.90;;;;;;6265961;23;20353;-93
2023/09/07 05:50:18;;;;;;;14.88;11.80;;;12.10;99.90;;;;;;6263389;23;20035;-90
2023/09/07 05:53:25;;;;;;;16.98;12.85;;;12.20;99.90;;;;;;6270187;23;20095;-90
2023/09/07 05:56:55;;;;;;;13.45;10.77;;;12.40;99.90;;;;;;6149836;23;20022;-88
2023/09/07 06:00:29;;;;;;;14.32;10.80;;;12.40;99.90;;;;;;6048058;23;20028;-91
2023/09/07 06:03:39;;;;;;;16.77;10.38;;;12.40;99.90;;;;;;6004469;23;20027;-93
2023/09/07 06:06:53;;;;;;;12.25;9.13;;;12.50;99.90;;;;;;6022864;23;20027;-92
2023/09/07 06:09:52;;;;;;;14.20;9.65;;;12.50;99.90;;;;;;6062450;23;20098;-92
2023/09/07 06:12:39;;;;;;;15.25;9.35;;;12.70;99.90;;;;;;6150478;22;20027;-92
2023/09/07 06:15:30;;;;;;;14.82;10.15;;;12.80;99.90;;;;;;6249266;23;20414;-94
2023/09/07 06:18:18;;;;;;;14.63;9.25;;;13.00;99.90;;;;;;6249922;23;20311;-92
2023/09/07 06:21:20;;;;;;;13.20;8.35;;;13.30;99.90;;;;;;6250969;23;20432;-91
2023/09/07 06:24:12;;;;;;;11.70;8.23;;;13.50;99.90;;;;;;6258872;23;20065;-93
2023/09/07 06:27:10;;;;;;;;;;;13.80;99.90;;;;;;6249825;23;20031;-93
2023/09/07 06:34:15;;;;;;;8.40;6.03;;;14.10;99.90;;;;;;6251315;23;20052;-93
2023/09/07 06:37:28;;;;;;;11.50;6.13;;;14.30;99.90;;;;;;6180195;22;20051;-92
2023/09/07 06:40:44;;;;;;;10.30;6.63;;;14.40;99.90;;;;;;6247261;23;20020;-93
2023/09/07 06:48:22;;;;;;;;;;;;;;;;;;;;;
2023/09/07 06:52:22;;;;;;;;;;;;;;;;;;;;;
2023/09/07 06:56:41;;;;;;;;;;;;;;;;;;;;;
2023/09/07 07:00:07;;;;;;;;;;;;;;;;;;;;;
2023/09/07 07:03:23;;;;;;;9.38;6.20;;;15.90;99.90;;;;;;5980260;23;20096;-91
2023/09/07 07:06:27;;;;;;;9.23;6.32;;;16.00;1.00;;;;;;6041865;23;20075;-93
2023/09/07 07:13:46;;;;;;;8.85;5.65;;;16.50;99.90;;;;;;6061491;23;20105;-93
2023/09/07 07:29:24;;;;;;;6.88;5.75;;;17.30;18.60;;;;;;5990149;23;20117;-93
2023/09/07 07:41:56;;;;;;;;;;;;;;;;;;;;;
2023/09/07 07:45:38;;;;;;;8.50;6.30;;;17.50;1.00;;;;;;6093428;23;20177;-93
2023/09/07 07:49:36;;;;;;;;;;;;;;;;;;;;;
2023/09/07 07:57:24;;;;;;;7.70;6.43;;;18.70;99.90;;;;;;5945256;23;20271;-93
2023/09/07 08:00:49;;;;;;;7.03;5.80;;;18.90;1.00;;;;;;5937477;24;20088;-94
2023/09/07 08:08:55;;;;;;;8.35;5.60;;;19.40;99.90;;;;;;5875675;24;20022;-91
2023/09/07 08:24:47;;;;;;;6.65;3.78;;;22.90;98.70;;;;;;5964168;24;20057;-91
2023/09/07 08:27:34;;;;;;;9.18;5.20;;;23.80;1.00;;;;;;6100106;23;20033;-93
2023/09/07 08:31:21;;;;;;;;;;;;;;;;;;;;;
2023/09/07 08:39:03;;;;;;;;;;;;;;;;;;;;;
2023/09/07 08:50:50;;;;;;;;;;;;;;;;;;;;;
2023/09/07 08:53:46;;;;;;;6.20;4.00;;;27.80;99.90;;;;;;6155936;23;20032;-94
2023/09/07 08:57:24;;;;;;;;;;;;;;;;;;;;;
2023/09/07 09:00:46;;;;;;;5.70;3.45;;;28.90;99.90;;;;;;6072150;23;20035;-92
2023/09/07 09:04:45;;;;;;;;;;;;;;;;;;;;;
2023/09/07 09:08:36;;;;;;;9.50;3.60;;;30.10;99.90;;;;;;6080118;23;20101;-91
2023/09/07 09:12:34;;;;;;;4.72;3.63;;;29.70;99.90;;;;;;6104026;23;20022;-92
2023/09/07 09:16:14;;;;;;;5.90;3.80;;;30.00;99.90;;;;;;6103960;23;20019;-93
2023/09/07 09:19:19;;;;;;;4.50;3.60;;;30.40;99.90;;;;;;6113090;23;20033;-91
2023/09/07 09:22:12;;;;;;;3.75;3.42;;;29.80;99.90;;;;;;6094426;23;20026;-90
2023/09/07 09:25:32;;;;;;;6.80;4.00;;;29.70;99.90;;;;;;6101789;23;20020;-85
2023/09/07 09:29:15;;;;;;;5.57;3.65;;;30.10;99.00;;;;;;6237222;22;20055;-86
2023/09/07 09:38:57;;;;;;;4.28;3.20;;;30.30;95.20;;;;;;6277684;22;20027;-90
2023/09/07 09:42:27;;;;;;;3.50;3.20;;;31.00;77.30;;;;;;6296912;22;20023;-91
2023/09/07 09:46:31;;;;;;;6.10;3.88;;;31.50;63.90;;;;;;6203565;22;20008;-87
2023/09/07 09:53:48;;;;;;;4.50;3.83;;;31.10;60.20;;;;;;6056441;23;20041;-94
2023/09/07 09:56:38;;;;;;;5.45;3.65;;;31.30;47.60;;;;;;6047617;23;20027;-93
2023/09/07 09:59:35;;;;;;;;;;;;;;;;;;;;;
2023/09/07 10:03:06;;;;;;;;;;;;;;;;;;;;;
2023/09/07 10:06:53;;;;;;;4.78;3.75;;;32.50;39.50;;;;;;6048041;23;20030;-90
2023/09/07 10:10:25;;;;;;;4.40;4.00;;;32.20;35.20;;;;;;5890004;24;20190;-92
2023/09/07 10:17:38;;;;;;;;;;;32.40;26.90;;;;;;6179686;22;20024;-92
2023/09/07 10:21:08;;;;;;;;;;;;;;;;;;;;;
2023/09/07 10:24:57;;;;;;;6.57;3.50;;;32.80;21.80;;;;;;6135398;23;20033;-94
2023/09/07 10:28:05;;;;;;;4.80;3.42;;;32.70;18.90;;;;;;6121186;23;20026;-90
2023/09/07 10:34:37;;;;;;;3.90;3.50;;;33.00;4.10;;;;;;6158519;23;20041;-91
2023/09/07 10:38:17;;;;;;;6.68;3.88;;;33.60;7.40;;;;;;6158286;23;20027;-93
2023/09/07 10:41:37;;;;;;;4.22;3.30;;;33.30;3.40;;;;;;6202003;22;20054;-94
2023/09/07 10:45:03;;;;;;;5.68;3.33;;;33.90;3.90;;;;;;6283187;22;20024;-92
2023/09/07 10:48:16;;;;;;;5.22;3.70;;;34.40;3.40;;;;;;6284532;22;20455;-91
2023/09/07 10:51:04;;;;;;;7.03;3.53;;;34.30;1.00;;;;;;6278229;22;20031;-94
2023/09/07 10:54:55;;;;;;;5.65;3.75;;;34.40;1.00;;;;;;6279822;22;20016;-93
2023/09/07 10:58:43;;;;;;;3.80;3.35;;;34.40;1.00;;;;;;6257476;22;20034;-93
2023/09/07 11:02:15;;;;;;;4.78;4.15;;;34.80;1.00;;;;;;6176499;23;20112;-92
2023/09/07 11:10:08;;;;;;;;;;;;;;;;;;;;;
2023/09/07 11:13:55;;;;;;;4.18;3.72;;;34.10;1.00;;;;;;6073915;23;20331;-92
2023/09/07 11:16:44;;;;;;;5.78;3.80;;;34.20;1.00;;;;;;6190502;23;20012;-92
2023/09/07 11:19:44;;;;;;;;;;;;;;;;;;;;;
2023/09/07 11:22:47;;;;;;;4.70;3.72;;;35.10;1.00;;;;;;6292450;22;20023;-93
2023/09/07 11:26:34;;;;;;;3.72;3.42;;;35.20;1.00;;;;;;6277256;22;20050;-92
2023/09/07 11:29:25;;;;;;;5.28;4.20;;;35.30;1.00;;;;;;6236238;22;20081;-92
2023/09/07 11:37:19;;;;;;;4.95;3.90;;;34.40;1.00;;;;;;6196503;23;20025;-93
2023/09/07 11:40:27;;;;;;;6.32;3.70;;;34.30;1.00;;;;;;6199978;23;20852;-93
2023/09/07 11:44:30;;;;;;;6.05;3.72;;;34.10;1.00;;;;;;6281240;22;20033;-92
2023/09/07 11:48:04;;;;;;;6.75;4.30;;;33.80;1.00;;;;;;6140428;23;20026;-87
2023/09/07 11:54:54;;;;;;;3.75;3.42;;;33.50;1.00;;;;;;6281967;22;20019;-93
2023/09/07 11:59:02;;;;;;;;;;;;;;;;;;;;;
2023/09/07 12:02:14;;;;;;;4.30;3.83;;;34.10;1.00;;;;;;6044531;23;20240;-94
2023/09/07 12:05:03;;;;;;;5.47;3.70;;;34.50;1.00;;;;;;6161058;23;20029;-93
2023/09/07 12:23:50;;;;;;;5.30;3.65;;;35.60;1.00;;;;;;6066922;23;20030;-93
2023/09/07 12:31:48;;;;;;;;;;;;;;;;;;;;;
2023/09/07 12:35:08;;;;;;;4.75;3.92;;;36.60;1.00;;;;;;6041706;23;20451;-92
2023/09/07 12:38:35;;;;;;;7.65;3.80;;;37.10;1.00;;;;;;6040835;23;20019;-93
2023/09/07 12:41:53;;;;;;;4.50;3.60;;;36.70;1.00;;;;;;6018078;23;20027;-92
2023/09/07 12:44:53;;;;;;;7.60;3.78;;;36.10;1.00;;;;;;6099344;23;20054;-93
2023/09/07 12:48:47;;;;;;;;;;;;;;;;;;;;;
2023/09/07 13:00:28;;;;;;;4.82;3.55;;;35.90;1.00;;;;;;6019230;23;20019;-92
2023/09/07 13:08:22;;;;;;;6.72;3.47;;;36.10;1.00;;;;;;5986360;23;20029;-91
2023/09/07 13:12:05;;;;;;;4.20;3.80;;;35.60;1.00;;;;;;5937925;24;20121;-94
2023/09/07 13:39:13;;;;;;;3.58;3.22;;;36.20;1.00;;;;;;6205054;22;1385438;-95
2023/09/07 13:46:53;;;;;;;5.60;3.13;;;36.10;1.00;;;;;;6194814;23;20036;-96
2023/09/07 13:49:54;;;;;;;5.63;2.58;;;35.90;1.00;;;;;;6194798;23;20039;-90
2023/09/07 13:53:16;;;;;;;7.03;2.90;;;36.00;1.00;;;;;;6193176;23;20032;-92
2023/09/07 13:56:05;;;;;;;7.68;2.70;;;36.40;1.00;;;;;;6198442;23;20813;-91
2023/09/07 14:03:49;;;;;;;;;;;;;;;;;;;;;
2023/09/07 14:07:54;;;;;;;4.03;3.00;;;35.80;1.00;;;;;;6169782;23;20085;-94
2023/09/07 14:15:32;;;;;;;;;;;;;;;;;;;;;
2023/09/07 14:19:31;;;;;;;;;;;;;;;;;;;;;
2023/09/07 14:23:20;;;;;;;4.28;3.05;;;37.00;1.00;;;;;;6051136;23;20039;-93
2023/09/07 14:26:17;;;;;;;4.10;3.13;;;36.40;1.00;;;;;;6051274;23;20035;-94
2023/09/07 14:30:12;;;;;;;;;;;;;;;;;;;;;
2023/09/07 14:33:44;;;;;;;;;;;;;;;;;;;;;
2023/09/07 14:36:54;;;;;;;3.95;3.53;;;34.90;1.00;;;;;;6076195;23;20089;-93
2023/09/07 14:43:58;;;;;;;4.50;3.45;;;34.90;1.00;;;;;;6085458;23;20061;-90
2023/09/07 14:47:28;;;;;;;;;;;;;;;;;;;;;
2023/09/07 14:51:02;;;;;;;7.75;3.42;;;33.70;1.00;;;;;;5951103;24;20041;-86
2023/09/07 14:54:25;;;;;;;;;;;;;;;;;;;;;
2023/09/07 15:10:15;;;;;;;;;;;;;;;;;;;;;
2023/09/07 15:13:34;;;;;;;4.18;2.90;;;34.30;1.00;;;;;;5934261;24;20040;-93
2023/09/07 15:22:02;;;;;;;;;;;;;;;;;;;;;
2023/09/07 15:26:03;;;;;;;4.40;2.92;;;33.40;1.00;;;;;;5929620;24;20032;-94
2023/09/07 15:29:00;;;;;;;;;;;;;;;;;;;;;
2023/09/07 15:50:11;;;;;;;;;;;;;;;;;;;;;
2023/09/07 16:07:28;;;;;;;6.30;3.10;;;32.80;1.00;;;;;;5283533;22;21965631;-92
2023/09/07 16:10:35;;;;;;;7.60;3.10;;;31.40;1.00;;;;;;6292551;22;20053;-91
2023/09/07 16:14:12;;;;;;;5.18;2.88;;;30.90;1.00;;;;;;6293960;22;20024;-92
2023/09/07 16:17:49;;;;;;;5.05;3.00;;;30.90;1.00;;;;;;6013076;23;20326;-94
2023/09/07 16:21:39;;;;;;;4.28;2.90;;;30.90;1.00;;;;;;6026986;23;20079;-92
2023/09/07 16:29:10;;;;;;;3.75;3.35;;;30.00;1.00;;;;;;6059986;23;20043;-88
2023/09/07 16:36:16;;;;;;;6.50;3.70;;;29.10;1.00;;;;;;6040586;23;20055;-94
2023/09/07 16:40:25;;;;;;;5.38;3.33;;;27.70;1.00;;;;;;5911064;24;20043;-87
2023/09/07 16:48:00;;;;;;;;;;;;;;;;;;;;;
2023/09/07 16:52:26;;;;;;;;;;;;;;;;;;;;;
2023/09/07 16:56:11;;;;;;;5.50;3.97;;;25.70;1.00;;;;;;6000018;23;20063;-87
2023/09/07 16:59:27;;;;;;;9.38;4.32;;;25.50;1.00;;;;;;6116765;23;20009;-85
2023/09/07 17:07:26;;;;;;;;;;;;;;;;;;;;;
2023/09/07 17:10:40;;;;;;;4.78;3.83;;;25.00;1.00;;;;;;6175614;23;20010;-93
2023/09/07 17:14:02;;;;;;;5.85;3.60;;;24.90;1.00;;;;;;6177311;23;20025;-92
2023/09/07 17:21:29;;;;;;;;;;;;;;;;;;;;;
2023/09/07 17:24:40;;;;;;;6.57;4.20;;;24.40;1.00;;;;;;6061464;23;20092;-94
2023/09/07 17:27:50;;;;;;;7.63;4.38;;;24.30;1.00;;;;;;5997897;24;20101;-92
2023/09/07 17:30:56;;;;;;;9.70;4.13;;;24.10;1.00;;;;;;5984970;23;20278;-93
2023/09/07 17:33:46;;;;;;;6.70;3.70;;;24.10;1.00;;;;;;6070765;23;20059;-94
2023/09/07 17:37:03;;;;;;;7.53;4.13;;;23.90;1.00;;;;;;6164214;23;20356;-95
2023/09/07 17:40:05;;;;;;;6.85;3.97;;;23.80;1.00;;;;;;6230458;22;20035;-94
2023/09/07 17:42:53;;;;;;;8.55;3.90;;;23.70;1.00;;;;;;6286910;22;20034;-91
2023/09/07 17:45:40;;;;;;;6.45;4.07;;;23.60;1.00;;;;;;6285512;22;20055;-92
2023/09/07 17:48:27;;;;;;;6.70;4.30;;;23.40;1.00;;;;;;6285308;22;20037;-93
2023/09/07 17:51:15;;;;;;;6.60;4.22;;;23.30;1.00;;;;;;6287073;22;20079;-93
2023/09/07 17:54:02;;;;;;;5.80;3.85;;;23.20;1.00;;;;;;6281177;22;20030;-92
2023/09/07 17:56:50;;;;;;;6.38;4.13;;;23.00;1.00;;;;;;6281626;22;20027;-95
2023/09/07 17:59:37;;;;;;;6.18;4.57;;;22.90;1.00;;;;;;6285771;22;20035;-91
2023/09/07 18:02:29;;;;;;;7.93;4.53;;;22.80;1.00;;;;;;6285174;22;20417;-94
2023/09/07 18:05:20;;;;;;;5.55;4.18;;;22.70;1.00;;;;;;6285694;22;20077;-91
2023/09/07 18:08:08;;;;;;;8.90;4.60;;;22.60;1.00;;;;;;6283561;22;20081;-93
2023/09/07 18:10:58;;;;;;;14.70;4.93;;;22.40;1.00;;;;;;6286346;22;20024;-90
2023/09/07 18:13:46;;;;;;;6.00;5.15;;;22.30;1.00;;;;;;6284123;22;20299;-94
2023/09/07 18:16:40;;;;;;;5.13;4.37;;;22.20;1.00;;;;;;6283602;22;20178;-91
2023/09/07 18:19:27;;;;;;;7.18;4.47;;;22.00;1.00;;;;;;6283280;22;20246;-91
2023/09/07 18:22:14;;;;;;;8.80;5.10;;;21.90;1.00;;;;;;6258433;22;20319;-95
2023/09/07 18:25:02;;;;;;;7.53;4.95;;;21.70;3.70;;;;;;6259926;22;20034;-95
2023/09/07 18:27:52;;;;;;;8.40;4.78;;;21.70;13.70;;;;;;6282468;22;20041;-93
2023/09/07 18:30:42;;;;;;;5.45;4.40;;;21.60;12.90;;;;;;6261617;22;20372;-93
2023/09/07 18:33:30;;;;;;;12.23;4.85;;;21.50;25.10;;;;;;6284219;22;20032;-93
2023/09/07 18:36:17;;;;;;;10.60;5.07;;;21.40;37.00;;;;;;6287234;22;20500;-94
2023/09/07 18:39:08;;;;;;;9.00;5.15;;;21.40;47.80;;;;;;6284988;22;20046;-95
2023/09/07 18:41:56;;;;;;;9.43;5.13;;;21.30;59.70;;;;;;6287759;22;20023;-96
2023/09/07 18:44:43;;;;;;;7.38;4.80;;;21.30;71.00;;;;;;6281779;22;20095;-92
2023/09/07 18:47:34;;;;;;;9.88;4.93;;;21.20;86.70;;;;;;6283369;22;20042;-95
2023/09/07 18:50:26;;;;;;;10.00;5.35;;;21.10;93.20;;;;;;6281722;22;20470;-93
2023/09/07 18:53:13;;;;;;;8.68;5.15;;;21.00;99.90;;;;;;6283385;22;20035;-95
2023/09/07 18:56:02;;;;;;;6.15;5.03;;;20.90;99.90;;;;;;6284589;22;20027;-95
2023/09/07 18:58:51;;;;;;;6.13;5.20;;;20.70;99.90;;;;;;6281451;22;20026;-93
2023/09/07 19:01:39;;;;;;;7.65;5.15;;;20.70;99.90;;;;;;6283452;22;20395;-92
2023/09/07 19:04:31;;;;;;;7.90;5.15;;;20.50;99.90;;;;;;6284387;22;20023;-90
2023/09/07 19:07:23;;;;;;;11.02;5.72;;;20.40;99.90;;;;;;6284665;22;20027;-93
2023/09/07 19:10:10;;;;;;;12.43;5.72;;;20.30;99.90;;;;;;6260148;22;20042;-92
2023/09/07 19:13:00;;;;;;;9.05;5.28;;;20.30;99.90;;;;;;6284681;22;20055;-92
2023/09/07 19:15:50;;;;;;;8.27;5.55;;;20.20;99.90;;;;;;6279799;22;20111;-91
2023/09/07 19:18:37;;;;;;;8.38;5.53;;;20.20;99.90;;;;;;6260279;22;20028;-93
2023/09/07 19:21:25;;;;;;;7.18;5.15;;;20.10;99.90;;;;;;6283800;22;20296;-91
2023/09/07 19:24:12;;;;;;;10.07;5.57;;;20.10;99.90;;;;;;6282785;22;20299;-92
2023/09/07 19:27:00;;;;;;;9.50;5.05;;;20.00;99.90;;;;;;6286498;22;20094;-93
2023/09/07 19:29:50;;;;;;;12.07;5.20;;;19.90;99.90;;;;;;6261829;22;20031;-91
2023/09/07 19:32:40;;;;;;;9.77;5.80;;;19.90;99.90;;;;;;6263646;22;20038;-91
2023/09/07 19:35:28;;;;;;;17.27;5.90;;;19.80;99.90;;;;;;6262950;22;20031;-93
2023/09/07 19:38:16;;;;;;;7.45;5.43;;;19.80;99.90;;;;;;6284639;22;20030;-93
2023/09/07 19:41:03;;;;;;;7.45;5.75;;;19.70;99.90;;;;;;6291792;22;20023;-94
2023/09/07 19:43:51;;;;;;;6.75;5.65;;;19.50;99.90;;;;;;6266284;22;20024;-94
2023/09/07 19:46:41;;;;;;;8.75;5.45;;;19.50;99.90;;;;;;6286839;22;20103;-91
2023/09/07 19:50:09;;;;;;;;;;;;;;;;;;;;;
2023/09/07 19:54:04;;;;;;;;;;;;;;;;;;;;;
2023/09/07 19:57:36;;;;;;;;;;;;;;;;;;;;;
2023/09/07 20:01:12;;;;;;;;;;;;;;;;;;;;;
2023/09/07 20:04:57;;;;;;;9.30;5.88;;;18.90;99.90;;;;;;6266160;22;20034;-91
2023/09/07 20:12:14;;;;;;;11.15;6.72;;;18.60;1.00;;;;;;6259262;22;20024;-93
2023/09/07 20:15:24;;;;;;;9.07;7.05;;;18.40;1.00;;;;;;6140947;22;20030;-93
2023/09/07 20:18:23;;;;;;;10.80;6.85;;;18.10;1.00;;;;;;6266352;22;20027;-93
2023/09/07 20:21:43;;;;;;;11.25;7.20;;;17.80;99.90;;;;;;6296200;22;20026;-93
2023/09/07 20:24:59;;;;;;;9.63;7.75;;;17.60;99.90;;;;;;6284578;22;20054;-94
2023/09/07 20:28:00;;;;;;;10.93;7.95;;;17.50;99.90;;;;;;6268635;22;20024;-94
2023/09/07 20:31:01;;;;;;;11.05;7.78;;;17.30;5.90;;;;;;6270153;22;20062;-94
2023/09/07 20:34:25;;;;;;;9.02;7.68;;;17.20;99.90;;;;;;6264097;22;20051;-93
2023/09/07 20:37:20;;;;;;;12.40;7.65;;;17.10;99.90;;;;;;6262005;22;20027;-92
2023/09/07 20:40:31;;;;;;;13.50;8.52;;;17.00;99.90;;;;;;6261258;22;20035;-93
2023/09/07 20:43:28;;;;;;;10.52;8.10;;;16.90;1.00;;;;;;6281233;22;20047;-93
2023/09/07 20:46:22;;;;;;;11.73;8.48;;;16.90;99.90;;;;;;6261897;22;20024;-93
2023/09/07 20:49:24;;;;;;;9.10;7.95;;;16.90;1.00;;;;;;6281694;22;20029;-94
2023/09/07 20:52:17;;;;;;;13.85;8.32;;;16.80;99.90;;;;;;6285890;22;20031;-93
2023/09/07 20:55:09;;;;;;;13.63;7.68;;;16.70;92.80;;;;;;6286652;22;20027;-95
2023/09/07 20:58:06;;;;;;;11.98;8.35;;;16.60;29.20;;;;;;6287352;22;20020;-94
2023/09/07 21:01:06;;;;;;;14.23;8.80;;;16.50;1.00;;;;;;6263905;22;20330;-94
2023/09/07 21:03:58;;;;;;;11.27;8.73;;;16.50;1.00;;;;;;6281263;22;20020;-93
2023/09/07 21:06:48;;;;;;;13.55;8.45;;;16.40;1.00;;;;;;6283608;22;20335;-90
2023/09/07 21:09:51;;;;;;;14.43;9.83;;;16.40;1.00;;;;;;6264968;22;20031;-93
2023/09/07 21:12:59;;;;;;;12.18;9.25;;;16.30;99.90;;;;;;6287974;22;20038;-94
2023/09/07 21:15:49;;;;;;;10.90;8.40;;;16.30;99.90;;;;;;6286021;22;20517;-93
2023/09/07 21:18:50;;;;;;;11.32;8.35;;;16.30;1.00;;;;;;6262739;22;20023;-93
2023/09/07 21:21:52;;;;;;;;;;;;;;;;;;;;;
2023/09/07 21:24:40;;;;;;;13.13;8.52;;;16.30;99.90;;;;;;6284810;22;20020;-92
2023/09/07 21:27:31;;;;;;;9.05;7.05;;;16.50;99.90;;;;;;6286433;22;20031;-93
2023/09/07 21:30:41;;;;;;;10.48;7.80;;;16.60;1.00;;;;;;6265672;22;20133;-94
2023/09/07 21:33:45;;;;;;;9.38;7.53;;;16.60;1.00;;;;;;6284482;22;20020;-92
2023/09/07 21:36:55;;;;;;;;;;;;;;;;;;;;;
2023/09/07 21:39:52;;;;;;;11.15;7.90;;;16.60;1.00;;;;;;6287687;22;20019;-93
2023/09/07 21:42:52;;;;;;;9.60;7.43;;;16.60;1.00;;;;;;6285123;22;20016;-93
2023/09/07 21:45:40;;;;;;;8.95;6.72;;;16.60;1.00;;;;;;6263581;22;20027;-93
2023/09/07 21:51:36;;;;;;;13.52;8.18;;;16.40;55.00;;;;;;6284107;22;20020;-92